sensor_id;sensor_type;location;lat;lon;timestamp;pressure;altitude;pressure_sealevel;temperature;humidity
83308;BME280;73223;48.584;13.460;2024-03-06T00:01:47;96695.09;;;7.51;100.00
83308;BME280;73223;48.584;13.460;2024-03-06T00:04:12;96687.72;;;7.34;100.00
83308;BME280;73223;48.584;13.460;2024-03-06T00:06:37;96693.81;;;7.30;100.00
83308;BME280;73223;48.584;13.460;2024-03-06T00:09:03;96685.94;;;7.35;100.00
83308;BME280;73223;48.584;13.460;2024-03-06T00:11:28;96691.19;;;7.31;100.00
83308;BME280;73223;48.584;13.460;2024-03-06T00:13:54;96697.28;;;7.69;100.00
83308;BME280;73223;48.584;13.460;2024-03-06T00:16:20;96702.00;;;7.49;100.00
83308;BME280;73223;48.584;13.460;2024-03-06T00:18:45;96698.72;;;7.81;100.00
83308;BME280;73223;48.584;13.460;2024-03-06T00:21:11;96701.22;;;7.85;100.00
83308;BME280;73223;48.584;13.460;2024-03-06T00:23:37;96707.38;;;7.78;100.00
83308;BME280;73223;48.584;13.460;2024-03-06T00:26:03;96710.25;;;7.64;100.00
83308;BME280;73223;48.584;13.460;2024-03-06T00:28:28;96700.97;;;7.56;100.00
83308;BME280;73223;48.584;13.460;2024-03-06T00:30:54;96710.81;;;7.37;100.00
83308;BME280;73223;48.584;13.460;2024-03-06T00:33:20;96712.81;;;7.24;100.00
83308;BME280;73223;48.584;13.460;2024-03-06T00:35:45;96710.91;;;6.89;100.00
83308;BME280;73223;48.584;13.460;2024-03-06T00:38:10;96709.75;;;7.49;100.00
83308;BME280;73223;48.584;13.460;2024-03-06T00:40:35;96710.38;;;7.58;100.00
83308;BME280;73223;48.584;13.460;2024-03-06T00:43:01;96714.63;;;7.61;100.00
83308;BME280;73223;48.584;13.460;2024-03-06T00:45:26;96711.59;;;7.42;100.00
83308;BME280;73223;48.584;13.460;2024-03-06T00:47:51;96710.22;;;7.26;100.00
83308;BME280;73223;48.584;13.460;2024-03-06T00:50:16;96718.94;;;7.17;100.00
83308;BME280;73223;48.584;13.460;2024-03-06T00:52:43;96713.78;;;7.19;100.00
83308;BME280;73223;48.584;13.460;2024-03-06T00:55:09;96713.19;;;7.48;100.00
83308;BME280;73223;48.584;13.460;2024-03-06T00:57:35;96720.50;;;7.27;100.00
83308;BME280;73223;48.584;13.460;2024-03-06T01:00:00;96721.84;;;7.02;100.00
83308;BME280;73223;48.584;13.460;2024-03-06T01:02:25;96723.41;;;7.11;100.00
83308;BME280;73223;48.584;13.460;2024-03-06T01:04:50;96707.50;;;7.32;100.00
83308;BME280;73223;48.584;13.460;2024-03-06T01:07:16;96716.88;;;6.93;100.00
83308;BME280;73223;48.584;13.460;2024-03-06T01:09:41;96721.84;;;7.02;100.00
83308;BME280;73223;48.584;13.460;2024-03-06T01:12:06;96712.19;;;7.13;100.00
83308;BME280;73223;48.584;13.460;2024-03-06T01:16:59;96713.03;;;6.66;100.00
83308;BME280;73223;48.584;13.460;2024-03-06T01:19:24;96714.94;;;6.56;100.00
83308;BME280;73223;48.584;13.460;2024-03-06T01:21:50;96707.91;;;6.65;100.00
83308;BME280;73223;48.584;13.460;2024-03-06T01:24:15;96714.69;;;6.70;100.00
83308;BME280;73223;48.584;13.460;2024-03-06T01:26:40;96703.81;;;7.01;100.00
83308;BME280;73223;48.584;13.460;2024-03-06T01:29:06;96714.50;;;6.81;100.00
83308;BME280;73223;48.584;13.460;2024-03-06T01:31:31;96700.38;;;7.00;100.00
83308;BME280;73223;48.584;13.460;2024-03-06T01:33:56;96706.41;;;7.01;100.00
83308;BME280;73223;48.584;13.460;2024-03-06T01:36:22;96707.44;;;6.92;100.00
83308;BME280;73223;48.584;13.460;2024-03-06T01:38:47;96707.53;;;6.86;100.00
83308;BME280;73223;48.584;13.460;2024-03-06T01:41:13;96703.22;;;6.86;100.00
83308;BME280;73223;48.584;13.460;2024-03-06T01:43:38;96705.72;;;6.91;100.00
83308;BME280;73223;48.584;13.460;2024-03-06T01:46:07;96704.66;;;7.01;100.00
83308;BME280;73223;48.584;13.460;2024-03-06T01:48:33;96710.00;;;6.92;100.00
83308;BME280;73223;48.584;13.460;2024-03-06T01:50:59;96712.38;;;7.03;100.00
83308;BME280;73223;48.584;13.460;2024-03-06T01:53:28;96698.69;;;6.99;100.00
83308;BME280;73223;48.584;13.460;2024-03-06T01:55:55;96696.41;;;6.84;100.00
83308;BME280;73223;48.584;13.460;2024-03-06T01:58:21;96706.34;;;7.04;100.00
83308;BME280;73223;48.584;13.460;2024-03-06T02:00:49;96697.72;;;7.05;100.00
83308;BME280;73223;48.584;13.460;2024-03-06T02:03:14;96702.03;;;7.04;100.00
83308;BME280;73223;48.584;13.460;2024-03-06T02:05:40;96699.84;;;6.83;100.00
83308;BME280;73223;48.584;13.460;2024-03-06T02:08:06;96694.56;;;6.92;100.00
83308;BME280;73223;48.584;13.460;2024-03-06T02:10:31;96699.16;;;6.75;100.00
83308;BME280;73223;48.584;13.460;2024-03-06T02:12:57;96691.47;;;6.73;100.00
83308;BME280;73223;48.584;13.460;2024-03-06T02:15:23;96689.16;;;6.59;100.00
83308;BME280;73223;48.584;13.460;2024-03-06T02:17:49;96691.63;;;6.64;100.00
83308;BME280;73223;48.584;13.460;2024-03-06T02:20:14;96695.78;;;6.71;100.00
83308;BME280;73223;48.584;13.460;2024-03-06T02:22:41;96697.59;;;6.66;100.00
83308;BME280;73223;48.584;13.460;2024-03-06T02:25:06;96688.19;;;6.63;100.00
83308;BME280;73223;48.584;13.460;2024-03-06T02:27:32;96696.34;;;6.87;100.00
83308;BME280;73223;48.584;13.460;2024-03-06T02:29:58;96693.81;;;6.85;100.00
83308;BME280;73223;48.584;13.460;2024-03-06T02:32:23;96685.56;;;6.67;100.00
83308;BME280;73223;48.584;13.460;2024-03-06T02:34:49;96691.22;;;6.85;100.00
83308;BME280;73223;48.584;13.460;2024-03-06T02:37:15;96689.44;;;6.89;100.00
83308;BME280;73223;48.584;13.460;2024-03-06T02:39:40;96694.34;;;7.01;100.00
83308;BME280;73223;48.584;13.460;2024-03-06T02:42:05;96685.38;;;6.77;100.00
83308;BME280;73223;48.584;13.460;2024-03-06T02:44:32;96687.59;;;6.97;100.00
83308;BME280;73223;48.584;13.460;2024-03-06T02:46:57;96683.56;;;6.82;100.00
83308;BME280;73223;48.584;13.460;2024-03-06T02:49:22;96687.16;;;6.74;100.00
83308;BME280;73223;48.584;13.460;2024-03-06T02:51:48;96682.75;;;6.80;100.00
83308;BME280;73223;48.584;13.460;2024-03-06T02:54:13;96685.13;;;6.45;100.00
83308;BME280;73223;48.584;13.460;2024-03-06T02:56:38;96688.72;;;6.35;100.00
83308;BME280;73223;48.584;13.460;2024-03-06T02:59:04;96674.38;;;6.68;100.00
83308;BME280;73223;48.584;13.460;2024-03-06T03:01:29;96682.84;;;6.26;100.00
83308;BME280;73223;48.584;13.460;2024-03-06T03:03:55;96691.31;;;6.33;100.00
83308;BME280;73223;48.584;13.460;2024-03-06T03:06:21;96681.78;;;6.38;100.00
83308;BME280;73223;48.584;13.460;2024-03-06T03:08:46;96694.03;;;6.25;100.00
83308;BME280;73223;48.584;13.460;2024-03-06T03:11:12;96688.16;;;6.16;100.00
83308;BME280;73223;48.584;13.460;2024-03-06T03:13:37;96690.63;;;6.23;100.00
83308;BME280;73223;48.584;13.460;2024-03-06T03:16:03;96685.59;;;6.16;100.00
83308;BME280;73223;48.584;13.460;2024-03-06T03:18:29;96689.09;;;6.10;100.00
83308;BME280;73223;48.584;13.460;2024-03-06T03:20:54;96683.09;;;6.10;100.00
83308;BME280;73223;48.584;13.460;2024-03-06T03:23:19;96690.59;;;6.25;100.00
83308;BME280;73223;48.584;13.460;2024-03-06T03:25:50;96686.41;;;6.18;100.00
83308;BME280;73223;48.584;13.460;2024-03-06T03:28:15;96688.41;;;6.01;100.00
83308;BME280;73223;48.584;13.460;2024-03-06T03:30:43;96684.19;;;5.97;100.00
83308;BME280;73223;48.584;13.460;2024-03-06T03:33:09;96695.34;;;5.96;100.00
83308;BME280;73223;48.584;13.460;2024-03-06T03:35:34;96693.50;;;6.04;100.00
83308;BME280;73223;48.584;13.460;2024-03-06T03:38:00;96693.50;;;6.04;100.00
83308;BME280;73223;48.584;13.460;2024-03-06T03:40:25;96692.72;;;5.99;100.00
83308;BME280;73223;48.584;13.460;2024-03-06T03:42:50;96696.31;;;5.90;100.00
83308;BME280;73223;48.584;13.460;2024-03-06T03:45:16;96699.56;;;6.00;100.00
83308;BME280;73223;48.584;13.460;2024-03-06T03:47:41;96693.47;;;6.07;100.00
83308;BME280;73223;48.584;13.460;2024-03-06T03:50:08;96699.63;;;5.95;100.00
83308;BME280;73223;48.584;13.460;2024-03-06T03:52:34;96705.53;;;6.03;100.00
83308;BME280;73223;48.584;13.460;2024-03-06T03:54:59;96697.75;;;6.08;100.00
83308;BME280;73223;48.584;13.460;2024-03-06T03:57:25;96701.25;;;6.02;100.00
83308;BME280;73223;48.584;13.460;2024-03-06T03:59:50;96700.47;;;5.96;100.00
83308;BME280;73223;48.584;13.460;2024-03-06T04:02:16;96705.75;;;5.89;100.00
83308;BME280;73223;48.584;13.460;2024-03-06T04:04:42;96702.28;;;5.90;100.00
83308;BME280;73223;48.584;13.460;2024-03-06T04:07:07;96709.09;;;5.91;100.00
83308;BME280;73223;48.584;13.460;2024-03-06T04:09:32;96709.25;;;5.81;100.00
83308;BME280;73223;48.584;13.460;2024-03-06T04:12:01;96704.59;;;5.46;100.00
83308;BME280;73223;48.584;13.460;2024-03-06T04:14:26;96707.19;;;5.44;100.00
83308;BME280;73223;48.584;13.460;2024-03-06T04:16:52;96700.94;;;5.62;100.00
83308;BME280;73223;48.584;13.460;2024-03-06T04:19:17;96699.47;;;5.43;100.00
83308;BME280;73223;48.584;13.460;2024-03-06T04:21:43;96703.13;;;5.27;100.00
83308;BME280;73223;48.584;13.460;2024-03-06T04:24:08;96707.41;;;5.24;100.00
83308;BME280;73223;48.584;13.460;2024-03-06T04:26:33;96716.03;;;5.20;100.00
83308;BME280;73223;48.584;13.460;2024-03-06T04:28:59;96716.34;;;4.96;100.00
83308;BME280;73223;48.584;13.460;2024-03-06T04:31:24;96719.94;;;4.80;100.00
83308;BME280;73223;48.584;13.460;2024-03-06T04:33:50;96727.63;;;4.81;100.00
83308;BME280;73223;48.584;13.460;2024-03-06T04:36:15;96729.72;;;5.21;100.00
83308;BME280;73223;48.584;13.460;2024-03-06T04:38:40;96724.44;;;5.35;100.00
83308;BME280;73223;48.584;13.460;2024-03-06T04:41:06;96733.06;;;5.31;100.00
83308;BME280;73223;48.584;13.460;2024-03-06T04:43:32;96733.31;;;5.08;100.00
83308;BME280;73223;48.584;13.460;2024-03-06T04:45:57;96735.81;;;5.14;100.00
83308;BME280;73223;48.584;13.460;2024-03-06T04:48:22;96743.63;;;5.03;100.00
83308;BME280;73223;48.584;13.460;2024-03-06T04:50:48;96745.16;;;5.21;100.00
83308;BME280;73223;48.584;13.460;2024-03-06T04:53:13;96746.16;;;5.08;100.00
83308;BME280;73223;48.584;13.460;2024-03-06T04:58:06;96751.09;;;4.42;100.00
83308;BME280;73223;48.584;13.460;2024-03-06T05:00:31;96757.75;;;4.64;100.00
83308;BME280;73223;48.584;13.460;2024-03-06T05:02:57;96755.81;;;4.86;100.00
83308;BME280;73223;48.584;13.460;2024-03-06T05:05:22;96750.81;;;4.72;100.00
83308;BME280;73223;48.584;13.460;2024-03-06T05:07:48;96752.31;;;4.93;100.00
83308;BME280;73223;48.584;13.460;2024-03-06T05:10:13;96749.00;;;4.83;100.00
83308;BME280;73223;48.584;13.460;2024-03-06T05:12:40;96746.22;;;5.02;100.00
83308;BME280;73223;48.584;13.460;2024-03-06T05:15:05;96746.06;;;5.17;100.00
83308;BME280;73223;48.584;13.460;2024-03-06T05:17:31;96739.31;;;5.08;100.00
83308;BME280;73223;48.584;13.460;2024-03-06T05:19:57;96753.97;;;5.00;100.00
83308;BME280;73223;48.584;13.460;2024-03-06T05:22:22;96757.44;;;4.93;100.00
83308;BME280;73223;48.584;13.460;2024-03-06T05:24:48;96755.75;;;4.92;100.00
83308;BME280;73223;48.584;13.460;2024-03-06T05:27:13;96761.06;;;4.75;100.00
83308;BME280;73223;48.584;13.460;2024-03-06T05:29:41;96761.50;;;4.21;100.00
83308;BME280;73223;48.584;13.460;2024-03-06T05:32:07;96767.63;;;4.03;100.00
83308;BME280;73223;48.584;13.460;2024-03-06T05:34:33;96762.34;;;4.27;100.00
83308;BME280;73223;48.584;13.460;2024-03-06T05:36:59;96764.94;;;4.18;100.00
83308;BME280;73223;48.584;13.460;2024-03-06T05:39:26;96774.16;;;4.46;100.00
83308;BME280;73223;48.584;13.460;2024-03-06T05:41:51;96780.00;;;4.65;100.00
83308;BME280;73223;48.584;13.460;2024-03-06T05:44:17;96780.63;;;4.85;100.00
83308;BME280;73223;48.584;13.460;2024-03-06T05:46:43;96770.28;;;4.93;100.00
83308;BME280;73223;48.584;13.460;2024-03-06T05:49:08;96781.88;;;4.45;100.00
83308;BME280;73223;48.584;13.460;2024-03-06T05:51:34;96779.06;;;4.69;100.00
83308;BME280;73223;48.584;13.460;2024-03-06T05:53:59;96786.00;;;4.61;100.00
83308;BME280;73223;48.584;13.460;2024-03-06T05:56:24;96779.03;;;4.74;100.00
83308;BME280;73223;48.584;13.460;2024-03-06T05:58:49;96788.13;;;5.07;100.00
83308;BME280;73223;48.584;13.460;2024-03-06T06:01:15;96786.44;;;5.03;100.00
83308;BME280;73223;48.584;13.460;2024-03-06T06:03:44;96787.03;;;4.39;100.00
83308;BME280;73223;48.584;13.460;2024-03-06T06:06:09;96791.31;;;4.37;100.00
83308;BME280;73223;48.584;13.460;2024-03-06T06:08:34;96791.53;;;4.11;100.00
83308;BME280;73223;48.584;13.460;2024-03-06T06:11:02;96797.19;;;4.52;100.00
83308;BME280;73223;48.584;13.460;2024-03-06T06:13:30;96797.25;;;4.46;100.00
83308;BME280;73223;48.584;13.460;2024-03-06T06:15:58;96797.28;;;4.40;100.00
83308;BME280;73223;48.584;13.460;2024-03-06T06:18:23;96804.88;;;4.52;100.00
83308;BME280;73223;48.584;13.460;2024-03-06T06:20:48;96803.28;;;4.42;100.00
83308;BME280;73223;48.584;13.460;2024-03-06T06:23:14;96805.88;;;4.36;100.00
83308;BME280;73223;48.584;13.460;2024-03-06T06:25:39;96807.63;;;5.24;100.00
83308;BME280;73223;48.584;13.460;2024-03-06T06:28:04;96815.44;;;5.17;100.00
83308;BME280;73223;48.584;13.460;2024-03-06T06:30:32;96812.53;;;5.47;100.00
83308;BME280;73223;48.584;13.460;2024-03-06T06:32:57;96816.84;;;5.44;100.00
83308;BME280;73223;48.584;13.460;2024-03-06T06:35:22;96815.25;;;5.35;100.00
83308;BME280;73223;48.584;13.460;2024-03-06T06:37:50;96820.09;;;5.59;100.00
83308;BME280;73223;48.584;13.460;2024-03-06T06:40:15;96832.50;;;5.21;100.00
83308;BME280;73223;48.584;13.460;2024-03-06T06:42:44;96829.00;;;5.31;100.00
83308;BME280;73223;48.584;13.460;2024-03-06T06:45:12;96831.63;;;5.23;100.00
83308;BME280;73223;48.584;13.460;2024-03-06T06:47:38;96831.47;;;5.39;100.00
83308;BME280;73223;48.584;13.460;2024-03-06T06:50:04;96834.78;;;5.51;100.00
83308;BME280;73223;48.584;13.460;2024-03-06T06:52:30;96844.78;;;5.74;100.00
83308;BME280;73223;48.584;13.460;2024-03-06T06:54:58;96837.88;;;5.76;100.00
83308;BME280;73223;48.584;13.460;2024-03-06T06:57:23;96844.81;;;5.73;100.00
83308;BME280;73223;48.584;13.460;2024-03-06T06:59:49;96848.00;;;5.91;100.00
83308;BME280;73223;48.584;13.460;2024-03-06T07:02:14;96838.38;;;6.09;100.00
83308;BME280;73223;48.584;13.460;2024-03-06T07:04:40;96845.53;;;5.82;100.00
83308;BME280;73223;48.584;13.460;2024-03-06T07:07:05;96852.22;;;5.99;100.00
83308;BME280;73223;48.584;13.460;2024-03-06T07:09:30;96851.56;;;5.81;100.00
83308;BME280;73223;48.584;13.460;2024-03-06T07:11:55;96849.41;;;6.18;100.00
83308;BME280;73223;48.584;13.460;2024-03-06T07:14:21;96862.09;;;5.58;100.00
83308;BME280;73223;48.584;13.460;2024-03-06T07:16:46;96857.50;;;5.86;100.00
83308;BME280;73223;48.584;13.460;2024-03-06T07:19:12;96852.88;;;6.13;100.00
83308;BME280;73223;48.584;13.460;2024-03-06T07:21:37;96859.72;;;6.15;100.00
83308;BME280;73223;48.584;13.460;2024-03-06T07:24:03;96863.38;;;5.98;100.00
83308;BME280;73223;48.584;13.460;2024-03-06T07:26:29;96872.84;;;6.58;100.00
83308;BME280;73223;48.584;13.460;2024-03-06T07:28:55;96869.13;;;6.78;100.00
83308;BME280;73223;48.584;13.460;2024-03-06T07:31:21;96869.69;;;6.96;100.00
83308;BME280;73223;48.584;13.460;2024-03-06T07:33:46;96868.59;;;7.10;100.00
83308;BME280;73223;48.584;13.460;2024-03-06T07:36:11;96864.31;;;7.56;100.00
83308;BME280;73223;48.584;13.460;2024-03-06T07:38:36;96878.56;;;7.29;100.00
83308;BME280;73223;48.584;13.460;2024-03-06T07:41:02;96870.00;;;7.74;100.00
83308;BME280;73223;48.584;13.460;2024-03-06T07:43:27;96877.94;;;8.06;100.00
83308;BME280;73223;48.584;13.460;2024-03-06T07:45:52;96879.94;;;7.93;100.00
83308;BME280;73223;48.584;13.460;2024-03-06T07:48:18;96873.47;;;8.57;100.00
83308;BME280;73223;48.584;13.460;2024-03-06T07:50:44;96880.09;;;8.67;100.00
83308;BME280;73223;48.584;13.460;2024-03-06T07:53:10;96880.50;;;8.49;100.00
83308;BME280;73223;48.584;13.460;2024-03-06T07:55:35;96880.69;;;8.79;100.00
83308;BME280;73223;48.584;13.460;2024-03-06T07:58:00;96885.31;;;9.01;100.00
83308;BME280;73223;48.584;13.460;2024-03-06T08:00:26;96882.19;;;9.24;100.00
83308;BME280;73223;48.584;13.460;2024-03-06T08:02:52;96887.72;;;9.45;100.00
83308;BME280;73223;48.584;13.460;2024-03-06T08:05:17;96880.72;;;9.48;100.00
83308;BME280;73223;48.584;13.460;2024-03-06T08:07:43;96884.22;;;9.46;100.00
83308;BME280;73223;48.584;13.460;2024-03-06T08:10:10;96882.81;;;9.66;100.00
83308;BME280;73223;48.584;13.460;2024-03-06T08:12:41;96886.88;;;9.09;100.00
83308;BME280;73223;48.584;13.460;2024-03-06T08:15:09;96886.81;;;9.78;100.00
83308;BME280;73223;48.584;13.460;2024-03-06T08:17:35;96884.97;;;9.83;100.00
83308;BME280;73223;48.584;13.460;2024-03-06T08:20:02;96888.28;;;10.49;100.00
83308;BME280;73223;48.584;13.460;2024-03-06T08:22:30;96884.34;;;10.35;100.00
83308;BME280;73223;48.584;13.460;2024-03-06T08:24:56;96890.13;;;10.73;100.00
83308;BME280;73223;48.584;13.460;2024-03-06T08:27:21;96888.59;;;10.94;100.00
83308;BME280;73223;48.584;13.460;2024-03-06T08:29:46;96889.06;;;10.78;100.00
83308;BME280;73223;48.584;13.460;2024-03-06T08:32:13;96885.47;;;10.27;100.00
83308;BME280;73223;48.584;13.460;2024-03-06T08:34:38;96889.28;;;10.72;100.00
83308;BME280;73223;48.584;13.460;2024-03-06T08:37:04;96890.69;;;10.83;100.00
83308;BME280;73223;48.584;13.460;2024-03-06T08:39:29;96901.03;;;11.37;100.00
83308;BME280;73223;48.584;13.460;2024-03-06T08:41:54;96901.28;;;11.29;100.00
83308;BME280;73223;48.584;13.460;2024-03-06T08:44:19;96898.16;;;11.46;100.00
83308;BME280;73223;48.584;13.460;2024-03-06T08:46:45;96901.88;;;10.85;100.00
83308;BME280;73223;48.584;13.460;2024-03-06T08:49:10;96901.88;;;11.37;100.00
83308;BME280;73223;48.584;13.460;2024-03-06T08:51:36;96904.47;;;11.37;100.00
83308;BME280;73223;48.584;13.460;2024-03-06T08:54:01;96898.19;;;11.96;100.00
83308;BME280;73223;48.584;13.460;2024-03-06T08:56:27;96897.63;;;12.11;100.00
83308;BME280;73223;48.584;13.460;2024-03-06T08:58:53;96900.91;;;12.63;96.42
83308;BME280;73223;48.584;13.460;2024-03-06T09:01:18;96900.03;;;12.85;100.00
83308;BME280;73223;48.584;13.460;2024-03-06T09:03:43;96897.66;;;12.79;97.01
83308;BME280;73223;48.584;13.460;2024-03-06T09:06:08;96914.75;;;12.63;100.00
83308;BME280;73223;48.584;13.460;2024-03-06T09:08:35;96912.25;;;12.37;100.00
83308;BME280;73223;48.584;13.460;2024-03-06T09:11:01;96902.44;;;13.34;100.00
83308;BME280;73223;48.584;13.460;2024-03-06T09:13:26;96899.09;;;13.93;87.21
83308;BME280;73223;48.584;13.460;2024-03-06T09:15:51;96907.56;;;12.70;90.51
83308;BME280;73223;48.584;13.460;2024-03-06T09:18:17;96911.72;;;12.29;88.65
83308;BME280;73223;48.584;13.460;2024-03-06T09:20:42;96904.81;;;13.18;94.86
83308;BME280;73223;48.584;13.460;2024-03-06T09:23:08;96906.97;;;14.11;77.38
83308;BME280;73223;48.584;13.460;2024-03-06T09:25:33;96904.91;;;13.59;79.14
83308;BME280;73223;48.584;13.460;2024-03-06T09:27:59;96904.31;;;13.72;81.33
83308;BME280;73223;48.584;13.460;2024-03-06T09:30:25;96906.97;;;14.11;81.36
83308;BME280;73223;48.584;13.460;2024-03-06T09:32:51;96904.97;;;13.13;85.63
83308;BME280;73223;48.584;13.460;2024-03-06T09:35:16;96909.91;;;13.43;79.40
83308;BME280;73223;48.584;13.460;2024-03-06T09:37:42;96909.66;;;13.05;80.25
83308;BME280;73223;48.584;13.460;2024-03-06T09:40:08;96907.88;;;13.49;83.96
83308;BME280;73223;48.584;13.460;2024-03-06T09:42:35;96914.06;;;13.67;80.92
83308;BME280;73223;48.584;13.460;2024-03-06T09:45:00;96911.34;;;13.90;79.58
83308;BME280;73223;48.584;13.460;2024-03-06T09:47:31;96918.41;;;13.46;72.70
83308;BME280;73223;48.584;13.460;2024-03-06T09:49:57;96916.94;;;13.61;74.67
83308;BME280;73223;48.584;13.460;2024-03-06T09:52:24;96906.34;;;13.24;73.83
83308;BME280;73223;48.584;13.460;2024-03-06T09:54:55;96921.25;;;12.51;85.36
83308;BME280;73223;48.584;13.460;2024-03-06T09:57:21;96914.06;;;13.67;71.95
83308;BME280;73223;48.584;13.460;2024-03-06T09:59:47;96920.81;;;13.51;70.86
83308;BME280;73223;48.584;13.460;2024-03-06T10:02:25;96920.84;;;14.12;72.41
83308;BME280;73223;48.584;13.460;2024-03-06T10:04:55;96914.56;;;14.16;74.66
83308;BME280;73223;48.584;13.460;2024-03-06T10:07:20;96914.41;;;14.19;79.28
83308;BME280;73223;48.584;13.460;2024-03-06T10:09:47;96911.69;;;14.42;71.99
83308;BME280;73223;48.584;13.460;2024-03-06T10:12:12;96911.78;;;14.00;69.83
83308;BME280;73223;48.584;13.460;2024-03-06T10:17:08;96912.78;;;13.13;71.98
83308;BME280;73223;48.584;13.460;2024-03-06T10:19:33;96915.94;;;13.00;72.46
83308;BME280;73223;48.584;13.460;2024-03-06T10:21:59;96919.91;;;13.52;73.14
83308;BME280;73223;48.584;13.460;2024-03-06T10:24:26;96912.81;;;14.35;66.43
83308;BME280;73223;48.584;13.460;2024-03-06T10:26:54;96917.94;;;14.18;73.18
83308;BME280;73223;48.584;13.460;2024-03-06T10:29:20;96908.28;;;14.20;76.36
83308;BME280;73223;48.584;13.460;2024-03-06T10:31:51;96914.91;;;14.08;72.45
83308;BME280;73223;48.584;13.460;2024-03-06T10:34:17;96918.53;;;14.45;75.45
83308;BME280;73223;48.584;13.460;2024-03-06T10:36:43;96916.44;;;14.33;71.35
83308;BME280;73223;48.584;13.460;2024-03-06T10:39:11;96920.88;;;14.31;68.44
83308;BME280;73223;48.584;13.460;2024-03-06T10:41:37;96921.56;;;14.34;69.30
83308;BME280;73223;48.584;13.460;2024-03-06T10:44:04;96923.22;;;14.16;70.10
83308;BME280;73223;48.584;13.460;2024-03-06T10:46:30;96926.91;;;14.12;68.10
83308;BME280;73223;48.584;13.460;2024-03-06T10:48:56;96927.59;;;14.16;69.38
83308;BME280;73223;48.584;13.460;2024-03-06T10:51:24;96931.88;;;14.17;65.93
83308;BME280;73223;48.584;13.460;2024-03-06T10:53:50;96930.84;;;14.01;68.06
83308;BME280;73223;48.584;13.460;2024-03-06T10:56:17;96930.84;;;13.80;67.66
83308;BME280;73223;48.584;13.460;2024-03-06T10:58:44;96925.22;;;13.71;68.24
83308;BME280;73223;48.584;13.460;2024-03-06T11:01:09;96943.13;;;13.78;68.38
83308;BME280;73223;48.584;13.460;2024-03-06T11:03:35;96938.16;;;14.13;67.75
83308;BME280;73223;48.584;13.460;2024-03-06T11:06:02;96934.06;;;14.07;64.42
83308;BME280;73223;48.584;13.460;2024-03-06T11:08:28;96942.19;;;13.79;62.96
83308;BME280;73223;48.584;13.460;2024-03-06T11:11:20;96938.34;;;13.68;69.10
83308;BME280;73223;48.584;13.460;2024-03-06T11:13:49;96933.97;;;13.48;68.08
83308;BME280;73223;48.584;13.460;2024-03-06T11:16:14;96941.19;;;13.62;69.22
83308;BME280;73223;48.584;13.460;2024-03-06T11:18:40;96933.03;;;14.11;70.46
83308;BME280;73223;48.584;13.460;2024-03-06T11:23:34;96935.63;;;13.71;70.07
83308;BME280;73223;48.584;13.460;2024-03-06T11:26:04;96926.94;;;13.50;73.07
83308;BME280;73223;48.584;13.460;2024-03-06T11:28:37;96925.41;;;13.24;70.79
83308;BME280;73223;48.584;13.460;2024-03-06T11:31:05;96925.13;;;13.30;74.80
83308;BME280;73223;48.584;13.460;2024-03-06T11:33:41;96920.63;;;13.55;70.19
83308;BME280;73223;48.584;13.460;2024-03-06T11:38:56;96923.13;;;13.79;69.88
83308;BME280;73223;48.584;13.460;2024-03-06T11:41:23;96918.59;;;14.23;62.62
83308;BME280;73223;48.584;13.460;2024-03-06T11:43:49;96923.19;;;13.77;68.16
83308;BME280;73223;48.584;13.460;2024-03-06T11:46:19;96923.97;;;13.59;65.23
83308;BME280;73223;48.584;13.460;2024-03-06T11:48:52;96922.13;;;13.19;68.80
83308;BME280;73223;48.584;13.460;2024-03-06T11:51:18;96923.78;;;12.98;69.34
83308;BME280;73223;48.584;13.460;2024-03-06T11:53:44;96921.34;;;13.17;69.08
83308;BME280;73223;48.584;13.460;2024-03-06T11:56:09;96925.75;;;13.37;66.48
83308;BME280;73223;48.584;13.460;2024-03-06T11:58:35;96917.50;;;13.47;67.62
83308;BME280;73223;48.584;13.460;2024-03-06T12:01:01;96921.16;;;13.43;65.54
83308;BME280;73223;48.584;13.460;2024-03-06T12:03:27;96925.03;;;13.33;66.07
83308;BME280;73223;48.584;13.460;2024-03-06T12:05:52;96927.44;;;13.38;65.06
83308;BME280;73223;48.584;13.460;2024-03-06T12:08:17;96925.47;;;13.23;66.13
83308;BME280;73223;48.584;13.460;2024-03-06T12:10:45;96922.25;;;13.16;66.86
83308;BME280;73223;48.584;13.460;2024-03-06T12:13:10;96920.38;;;13.19;65.54
83308;BME280;73223;48.584;13.460;2024-03-06T12:15:36;96920.91;;;13.28;64.78
83308;BME280;73223;48.584;13.460;2024-03-06T12:18:01;96927.50;;;13.36;64.50
83308;BME280;73223;48.584;13.460;2024-03-06T12:20:26;96923.59;;;13.46;61.50
83308;BME280;73223;48.584;13.460;2024-03-06T12:22:52;96928.13;;;13.63;62.27
83308;BME280;73223;48.584;13.460;2024-03-06T12:25:25;96924.28;;;13.51;63.03
83308;BME280;73223;48.584;13.460;2024-03-06T12:27:53;96928.66;;;13.92;61.10
83308;BME280;73223;48.584;13.460;2024-03-06T12:30:22;96921.63;;;13.94;58.91
83308;BME280;73223;48.584;13.460;2024-03-06T12:32:59;96928.31;;;14.19;58.35
83308;BME280;73223;48.584;13.460;2024-03-06T12:35:26;96921.41;;;14.18;57.87
83308;BME280;73223;48.584;13.460;2024-03-06T12:37:51;96925.53;;;14.04;58.13
83308;BME280;73223;48.584;13.460;2024-03-06T12:40:17;96923.41;;;14.32;58.23
83308;BME280;73223;48.584;13.460;2024-03-06T12:42:43;96927.28;;;12.97;64.37
83308;BME280;73223;48.584;13.460;2024-03-06T12:45:10;96926.50;;;13.18;65.84
83308;BME280;73223;48.584;13.460;2024-03-06T12:47:35;96929.19;;;13.37;64.12
83308;BME280;73223;48.584;13.460;2024-03-06T12:50:01;96922.47;;;13.74;67.67
83308;BME280;73223;48.584;13.460;2024-03-06T12:52:26;96936.78;;;12.30;76.83
83308;BME280;73223;48.584;13.460;2024-03-06T12:54:51;96932.19;;;12.36;79.91
83308;BME280;73223;48.584;13.460;2024-03-06T12:57:16;96928.59;;;12.64;79.79